Terminal Aerodrome Forecast
Issued by NWS

Home | Current Version | Previous Version | Text Only | Print | Product List | Glossary On
Versions: 1 2 3 4 5 6 7 8 9 10 11 12 13 14 15
588
FTUS43 KLSX 130541 CCA
TAFCPS
TAF COR
KCPS 130541Z 1306/1406 23005KT P6SM SKC
     FM131100 19006KT P6SM FEW250 WS020/23035KT
     FM131400 20010G20KT P6SM FEW250 WS020/22040KT
     FM131500 20013G27KT P6SM FEW250
     FM131700 24015G30KT P6SM SCT250
     FM132100 29015G26KT P6SM BKN250=

USA.gov is the U.S. government's official web portal to all federal, state and local government web resources and services.